sensor_id;sensor_type;location;lat;lon;timestamp;temperature;humidity
2867;DHT22;1441;48.886;8.728;2023-07-31T00:00:35;16.80;90.80
2867;DHT22;1441;48.886;8.728;2023-07-31T00:03:00;16.70;90.30
2867;DHT22;1441;48.886;8.728;2023-07-31T00:05:26;16.70;90.40
2867;DHT22;1441;48.886;8.728;2023-07-31T00:07:51;16.70;89.90
2867;DHT22;1441;48.886;8.728;2023-07-31T00:10:17;16.80;89.30
2867;DHT22;1441;48.886;8.728;2023-07-31T00:12:45;16.80;89.90
2867;DHT22;1441;48.886;8.728;2023-07-31T00:15:10;16.90;89.50
2867;DHT22;1441;48.886;8.728;2023-07-31T00:17:36;16.90;89.20
2867;DHT22;1441;48.886;8.728;2023-07-31T00:20:02;16.80;89.80
2867;DHT22;1441;48.886;8.728;2023-07-31T00:22:27;16.70;90.10
2867;DHT22;1441;48.886;8.728;2023-07-31T00:24:53;16.70;90.10
2867;DHT22;1441;48.886;8.728;2023-07-31T00:27:19;16.70;90.30
2867;DHT22;1441;48.886;8.728;2023-07-31T00:29:44;16.70;90.70
2867;DHT22;1441;48.886;8.728;2023-07-31T00:32:10;16.70;91.20
2867;DHT22;1441;48.886;8.728;2023-07-31T00:34:35;16.70;91.00
2867;DHT22;1441;48.886;8.728;2023-07-31T00:37:01;16.70;91.10
2867;DHT22;1441;48.886;8.728;2023-07-31T00:39:26;16.70;91.50
2867;DHT22;1441;48.886;8.728;2023-07-31T00:41:52;16.60;91.50
2867;DHT22;1441;48.886;8.728;2023-07-31T00:44:17;16.60;91.00
2867;DHT22;1441;48.886;8.728;2023-07-31T00:46:43;16.80;89.80
2867;DHT22;1441;48.886;8.728;2023-07-31T00:49:10;16.70;90.30
2867;DHT22;1441;48.886;8.728;2023-07-31T00:51:36;16.70;90.70
2867;DHT22;1441;48.886;8.728;2023-07-31T00:54:03;16.60;91.20
2867;DHT22;1441;48.886;8.728;2023-07-31T00:56:29;16.60;91.20
2867;DHT22;1441;48.886;8.728;2023-07-31T00:58:58;16.60;90.90
2867;DHT22;1441;48.886;8.728;2023-07-31T01:01:24;16.60;90.90
2867;DHT22;1441;48.886;8.728;2023-07-31T01:03:50;16.70;89.80
2867;DHT22;1441;48.886;8.728;2023-07-31T01:06:28;17.00;88.70
2867;DHT22;1441;48.886;8.728;2023-07-31T01:09:03;17.30;87.90
2867;DHT22;1441;48.886;8.728;2023-07-31T01:11:30;17.20;88.70
2867;DHT22;1441;48.886;8.728;2023-07-31T01:13:57;17.30;87.80
2867;DHT22;1441;48.886;8.728;2023-07-31T01:16:24;17.20;87.90
2867;DHT22;1441;48.886;8.728;2023-07-31T01:18:50;17.00;88.80
2867;DHT22;1441;48.886;8.728;2023-07-31T01:27:13;17.10;88.30
2867;DHT22;1441;48.886;8.728;2023-07-31T01:30:00;17.10;87.90
2867;DHT22;1441;48.886;8.728;2023-07-31T01:32:28;17.10;88.00
2867;DHT22;1441;48.886;8.728;2023-07-31T01:34:55;17.10;87.60
2867;DHT22;1441;48.886;8.728;2023-07-31T01:37:28;17.10;87.70
2867;DHT22;1441;48.886;8.728;2023-07-31T01:39:55;16.90;88.00
2867;DHT22;1441;48.886;8.728;2023-07-31T01:42:20;16.90;87.70
2867;DHT22;1441;48.886;8.728;2023-07-31T01:44:46;16.70;88.50
2867;DHT22;1441;48.886;8.728;2023-07-31T01:47:11;16.50;90.10
2867;DHT22;1441;48.886;8.728;2023-07-31T01:49:37;16.50;89.60
2867;DHT22;1441;48.886;8.728;2023-07-31T01:52:03;16.40;90.00
2867;DHT22;1441;48.886;8.728;2023-07-31T01:54:28;16.70;88.60
2867;DHT22;1441;48.886;8.728;2023-07-31T01:56:54;16.80;88.20
2867;DHT22;1441;48.886;8.728;2023-07-31T01:59:19;16.90;87.10
2867;DHT22;1441;48.886;8.728;2023-07-31T02:01:45;16.90;87.40
2867;DHT22;1441;48.886;8.728;2023-07-31T02:04:10;16.80;87.50
2867;DHT22;1441;48.886;8.728;2023-07-31T02:06:36;16.80;87.80
2867;DHT22;1441;48.886;8.728;2023-07-31T02:09:02;16.70;88.70
2867;DHT22;1441;48.886;8.728;2023-07-31T02:11:28;16.60;88.10
2867;DHT22;1441;48.886;8.728;2023-07-31T02:13:54;16.70;87.90
2867;DHT22;1441;48.886;8.728;2023-07-31T02:16:19;16.80;87.40
2867;DHT22;1441;48.886;8.728;2023-07-31T02:18:45;16.80;87.40
2867;DHT22;1441;48.886;8.728;2023-07-31T02:21:11;16.80;87.30
2867;DHT22;1441;48.886;8.728;2023-07-31T02:23:36;16.50;89.10
2867;DHT22;1441;48.886;8.728;2023-07-31T02:26:02;16.70;88.30
2867;DHT22;1441;48.886;8.728;2023-07-31T02:28:28;16.90;87.60
2867;DHT22;1441;48.886;8.728;2023-07-31T02:30:53;16.90;87.50
2867;DHT22;1441;48.886;8.728;2023-07-31T02:33:19;16.90;87.70
2867;DHT22;1441;48.886;8.728;2023-07-31T02:35:44;16.80;88.30
2867;DHT22;1441;48.886;8.728;2023-07-31T02:38:10;16.60;88.40
2867;DHT22;1441;48.886;8.728;2023-07-31T02:40:35;16.60;88.60
2867;DHT22;1441;48.886;8.728;2023-07-31T02:43:01;16.50;89.20
2867;DHT22;1441;48.886;8.728;2023-07-31T02:45:27;16.20;89.90
2867;DHT22;1441;48.886;8.728;2023-07-31T02:47:52;16.20;89.60
2867;DHT22;1441;48.886;8.728;2023-07-31T02:50:18;16.20;89.50
2867;DHT22;1441;48.886;8.728;2023-07-31T02:52:43;16.20;89.40
2867;DHT22;1441;48.886;8.728;2023-07-31T02:55:09;16.20;89.70
2867;DHT22;1441;48.886;8.728;2023-07-31T02:57:34;16.30;89.80
2867;DHT22;1441;48.886;8.728;2023-07-31T03:00:00;16.40;89.30
2867;DHT22;1441;48.886;8.728;2023-07-31T03:02:26;16.50;89.30
2867;DHT22;1441;48.886;8.728;2023-07-31T03:04:52;16.20;90.70
2867;DHT22;1441;48.886;8.728;2023-07-31T03:07:17;16.20;90.40
2867;DHT22;1441;48.886;8.728;2023-07-31T03:09:43;16.20;90.40
2867;DHT22;1441;48.886;8.728;2023-07-31T03:12:08;16.30;90.20
2867;DHT22;1441;48.886;8.728;2023-07-31T03:14:34;16.10;91.30
2867;DHT22;1441;48.886;8.728;2023-07-31T03:17:00;16.20;90.90
2867;DHT22;1441;48.886;8.728;2023-07-31T03:19:25;16.00;92.30
2867;DHT22;1441;48.886;8.728;2023-07-31T03:21:51;16.00;91.70
2867;DHT22;1441;48.886;8.728;2023-07-31T03:24:16;16.00;91.40
2867;DHT22;1441;48.886;8.728;2023-07-31T03:26:42;16.10;91.10
2867;DHT22;1441;48.886;8.728;2023-07-31T03:29:08;16.10;91.10
2867;DHT22;1441;48.886;8.728;2023-07-31T03:31:33;16.10;91.00
2867;DHT22;1441;48.886;8.728;2023-07-31T03:33:59;16.10;91.00
2867;DHT22;1441;48.886;8.728;2023-07-31T03:36:25;16.10;91.10
2867;DHT22;1441;48.886;8.728;2023-07-31T03:38:51;15.90;92.50
2867;DHT22;1441;48.886;8.728;2023-07-31T03:41:17;15.90;92.10
2867;DHT22;1441;48.886;8.728;2023-07-31T03:43:43;16.00;91.90
2867;DHT22;1441;48.886;8.728;2023-07-31T03:46:08;16.10;91.60
2867;DHT22;1441;48.886;8.728;2023-07-31T03:48:34;16.10;91.50
2867;DHT22;1441;48.886;8.728;2023-07-31T03:50:59;16.10;91.40
2867;DHT22;1441;48.886;8.728;2023-07-31T03:53:25;16.00;91.90
2867;DHT22;1441;48.886;8.728;2023-07-31T03:55:50;15.90;92.00
2867;DHT22;1441;48.886;8.728;2023-07-31T03:58:16;15.90;92.10
2867;DHT22;1441;48.886;8.728;2023-07-31T04:00:42;15.90;92.20
2867;DHT22;1441;48.886;8.728;2023-07-31T04:03:07;15.80;93.00
2867;DHT22;1441;48.886;8.728;2023-07-31T04:05:33;15.70;93.00
2867;DHT22;1441;48.886;8.728;2023-07-31T04:07:59;15.70;93.70
2867;DHT22;1441;48.886;8.728;2023-07-31T04:10:24;15.70;93.30
2867;DHT22;1441;48.886;8.728;2023-07-31T04:12:50;16.00;92.20
2867;DHT22;1441;48.886;8.728;2023-07-31T04:15:15;16.10;91.60
2867;DHT22;1441;48.886;8.728;2023-07-31T04:17:41;16.10;91.50
2867;DHT22;1441;48.886;8.728;2023-07-31T04:20:07;16.10;91.80
2867;DHT22;1441;48.886;8.728;2023-07-31T04:22:33;15.90;92.90
2867;DHT22;1441;48.886;8.728;2023-07-31T04:24:58;16.10;91.60
2867;DHT22;1441;48.886;8.728;2023-07-31T04:27:24;15.90;92.80
2867;DHT22;1441;48.886;8.728;2023-07-31T04:29:50;15.90;92.60
2867;DHT22;1441;48.886;8.728;2023-07-31T04:32:16;15.90;92.40
2867;DHT22;1441;48.886;8.728;2023-07-31T04:34:42;15.90;92.20
2867;DHT22;1441;48.886;8.728;2023-07-31T04:37:08;15.90;92.60
2867;DHT22;1441;48.886;8.728;2023-07-31T04:39:33;15.90;92.50
2867;DHT22;1441;48.886;8.728;2023-07-31T04:41:59;16.10;91.90
2867;DHT22;1441;48.886;8.728;2023-07-31T04:44:24;16.20;91.20
2867;DHT22;1441;48.886;8.728;2023-07-31T04:46:50;16.30;90.90
2867;DHT22;1441;48.886;8.728;2023-07-31T04:49:15;16.50;90.20
2867;DHT22;1441;48.886;8.728;2023-07-31T04:51:41;16.70;89.10
2867;DHT22;1441;48.886;8.728;2023-07-31T04:54:06;16.80;89.10
2867;DHT22;1441;48.886;8.728;2023-07-31T04:56:32;16.80;88.70
2867;DHT22;1441;48.886;8.728;2023-07-31T04:58:57;16.90;88.50
2867;DHT22;1441;48.886;8.728;2023-07-31T05:01:23;16.80;88.20
2867;DHT22;1441;48.886;8.728;2023-07-31T05:03:49;16.90;88.30
2867;DHT22;1441;48.886;8.728;2023-07-31T05:06:14;16.80;88.90
2867;DHT22;1441;48.886;8.728;2023-07-31T05:08:40;16.70;89.10
2867;DHT22;1441;48.886;8.728;2023-07-31T05:11:06;16.70;89.00
2867;DHT22;1441;48.886;8.728;2023-07-31T05:13:32;16.80;88.60
2867;DHT22;1441;48.886;8.728;2023-07-31T05:15:57;16.80;88.90
2867;DHT22;1441;48.886;8.728;2023-07-31T05:18:23;16.90;88.50
2867;DHT22;1441;48.886;8.728;2023-07-31T05:20:48;17.00;87.90
2867;DHT22;1441;48.886;8.728;2023-07-31T05:23:14;17.10;87.50
2867;DHT22;1441;48.886;8.728;2023-07-31T05:25:39;17.10;87.80
2867;DHT22;1441;48.886;8.728;2023-07-31T05:28:05;17.00;87.80
2867;DHT22;1441;48.886;8.728;2023-07-31T05:30:31;17.00;87.80
2867;DHT22;1441;48.886;8.728;2023-07-31T05:32:56;17.10;87.40
2867;DHT22;1441;48.886;8.728;2023-07-31T05:35:22;17.50;86.20
2867;DHT22;1441;48.886;8.728;2023-07-31T05:37:48;17.50;85.80
2867;DHT22;1441;48.886;8.728;2023-07-31T05:40:14;17.60;85.60
2867;DHT22;1441;48.886;8.728;2023-07-31T05:42:39;17.70;85.40
2867;DHT22;1441;48.886;8.728;2023-07-31T05:45:06;17.80;85.40
2867;DHT22;1441;48.886;8.728;2023-07-31T05:47:32;18.00;84.60
2867;DHT22;1441;48.886;8.728;2023-07-31T05:49:58;18.10;84.40
2867;DHT22;1441;48.886;8.728;2023-07-31T05:52:23;18.30;84.70
2867;DHT22;1441;48.886;8.728;2023-07-31T05:54:49;18.40;83.70
2867;DHT22;1441;48.886;8.728;2023-07-31T05:57:15;18.60;83.00
2867;DHT22;1441;48.886;8.728;2023-07-31T05:59:41;18.80;82.30
2867;DHT22;1441;48.886;8.728;2023-07-31T06:02:06;18.80;82.60
2867;DHT22;1441;48.886;8.728;2023-07-31T06:04:32;18.80;83.00
2867;DHT22;1441;48.886;8.728;2023-07-31T06:06:57;19.00;81.50
2867;DHT22;1441;48.886;8.728;2023-07-31T06:09:23;19.00;81.70
2867;DHT22;1441;48.886;8.728;2023-07-31T06:11:49;18.60;84.00
2867;DHT22;1441;48.886;8.728;2023-07-31T06:14:14;18.60;83.50
2867;DHT22;1441;48.886;8.728;2023-07-31T06:16:40;18.70;84.20
2867;DHT22;1441;48.886;8.728;2023-07-31T06:19:05;18.50;84.20
2867;DHT22;1441;48.886;8.728;2023-07-31T06:21:32;18.30;85.70
2867;DHT22;1441;48.886;8.728;2023-07-31T06:23:58;18.20;85.40
2867;DHT22;1441;48.886;8.728;2023-07-31T06:26:24;18.40;84.90
2867;DHT22;1441;48.886;8.728;2023-07-31T06:28:49;18.70;84.20
2867;DHT22;1441;48.886;8.728;2023-07-31T06:31:15;18.90;83.70
2867;DHT22;1441;48.886;8.728;2023-07-31T06:33:40;18.90;83.00
2867;DHT22;1441;48.886;8.728;2023-07-31T06:36:06;19.00;83.00
2867;DHT22;1441;48.886;8.728;2023-07-31T06:38:31;18.90;83.60
2867;DHT22;1441;48.886;8.728;2023-07-31T06:40:57;18.70;85.10
2867;DHT22;1441;48.886;8.728;2023-07-31T06:43:22;18.70;84.30
2867;DHT22;1441;48.886;8.728;2023-07-31T06:45:48;18.90;84.20
2867;DHT22;1441;48.886;8.728;2023-07-31T06:48:16;18.80;84.40
2867;DHT22;1441;48.886;8.728;2023-07-31T06:50:42;18.60;85.90
2867;DHT22;1441;48.886;8.728;2023-07-31T06:53:07;18.80;85.90
2867;DHT22;1441;48.886;8.728;2023-07-31T06:55:33;18.70;85.90
2867;DHT22;1441;48.886;8.728;2023-07-31T06:57:59;18.90;84.60
2867;DHT22;1441;48.886;8.728;2023-07-31T07:00:24;19.30;83.50
2867;DHT22;1441;48.886;8.728;2023-07-31T07:02:50;19.40;83.90
2867;DHT22;1441;48.886;8.728;2023-07-31T07:05:16;19.30;83.30
2867;DHT22;1441;48.886;8.728;2023-07-31T07:07:43;19.40;83.20
2867;DHT22;1441;48.886;8.728;2023-07-31T07:10:09;19.40;83.90
2867;DHT22;1441;48.886;8.728;2023-07-31T07:12:34;19.50;82.90
2867;DHT22;1441;48.886;8.728;2023-07-31T07:15:01;19.50;82.80
2867;DHT22;1441;48.886;8.728;2023-07-31T07:17:29;19.50;83.10
2867;DHT22;1441;48.886;8.728;2023-07-31T07:19:58;19.50;82.80
2867;DHT22;1441;48.886;8.728;2023-07-31T07:22:24;19.60;82.40
2867;DHT22;1441;48.886;8.728;2023-07-31T07:24:50;19.70;82.50
2867;DHT22;1441;48.886;8.728;2023-07-31T07:27:16;19.50;83.60
2867;DHT22;1441;48.886;8.728;2023-07-31T07:29:41;19.70;82.90
2867;DHT22;1441;48.886;8.728;2023-07-31T07:32:07;19.70;82.30
2867;DHT22;1441;48.886;8.728;2023-07-31T07:34:33;19.90;83.20
2867;DHT22;1441;48.886;8.728;2023-07-31T07:36:58;19.90;82.20
2867;DHT22;1441;48.886;8.728;2023-07-31T07:39:24;19.90;82.60
2867;DHT22;1441;48.886;8.728;2023-07-31T07:41:50;19.70;83.20
2867;DHT22;1441;48.886;8.728;2023-07-31T07:44:16;19.80;82.70
2867;DHT22;1441;48.886;8.728;2023-07-31T07:46:41;19.90;82.00
2867;DHT22;1441;48.886;8.728;2023-07-31T07:49:07;20.20;81.60
2867;DHT22;1441;48.886;8.728;2023-07-31T07:51:32;20.20;82.80
2867;DHT22;1441;48.886;8.728;2023-07-31T07:53:58;20.00;83.30
2867;DHT22;1441;48.886;8.728;2023-07-31T07:56:25;19.90;82.20
2867;DHT22;1441;48.886;8.728;2023-07-31T07:58:51;20.00;82.60
2867;DHT22;1441;48.886;8.728;2023-07-31T08:01:17;20.10;82.00
2867;DHT22;1441;48.886;8.728;2023-07-31T08:03:43;20.10;82.20
2867;DHT22;1441;48.886;8.728;2023-07-31T08:06:09;20.00;82.70
2867;DHT22;1441;48.886;8.728;2023-07-31T08:08:35;20.10;82.10
2867;DHT22;1441;48.886;8.728;2023-07-31T08:11:01;20.60;79.70
2867;DHT22;1441;48.886;8.728;2023-07-31T08:13:26;20.90;78.80
2867;DHT22;1441;48.886;8.728;2023-07-31T08:15:52;21.40;77.70
2867;DHT22;1441;48.886;8.728;2023-07-31T08:18:18;21.90;76.30
2867;DHT22;1441;48.886;8.728;2023-07-31T08:20:44;21.90;76.00
2867;DHT22;1441;48.886;8.728;2023-07-31T08:23:10;21.80;77.30
2867;DHT22;1441;48.886;8.728;2023-07-31T08:25:36;21.60;77.30
2867;DHT22;1441;48.886;8.728;2023-07-31T08:28:02;21.50;77.50
2867;DHT22;1441;48.886;8.728;2023-07-31T08:30:28;21.50;78.40
2867;DHT22;1441;48.886;8.728;2023-07-31T08:32:53;21.30;77.70
2867;DHT22;1441;48.886;8.728;2023-07-31T08:35:19;21.50;78.00
2867;DHT22;1441;48.886;8.728;2023-07-31T08:37:44;21.50;78.40
2867;DHT22;1441;48.886;8.728;2023-07-31T08:40:10;21.90;77.30
2867;DHT22;1441;48.886;8.728;2023-07-31T08:42:46;22.10;77.00
2867;DHT22;1441;48.886;8.728;2023-07-31T08:45:18;22.00;75.90
2867;DHT22;1441;48.886;8.728;2023-07-31T08:47:48;21.90;75.10
2867;DHT22;1441;48.886;8.728;2023-07-31T08:50:16;21.90;76.10
2867;DHT22;1441;48.886;8.728;2023-07-31T08:52:42;21.90;75.90
2867;DHT22;1441;48.886;8.728;2023-07-31T08:55:08;21.90;75.00
2867;DHT22;1441;48.886;8.728;2023-07-31T08:57:35;22.00;76.10
2867;DHT22;1441;48.886;8.728;2023-07-31T09:00:03;22.80;74.30
2867;DHT22;1441;48.886;8.728;2023-07-31T09:02:34;23.10;74.10
2867;DHT22;1441;48.886;8.728;2023-07-31T09:05:02;23.00;72.90
2867;DHT22;1441;48.886;8.728;2023-07-31T09:07:28;22.60;73.70
2867;DHT22;1441;48.886;8.728;2023-07-31T09:09:54;22.40;74.50
2867;DHT22;1441;48.886;8.728;2023-07-31T09:12:20;22.10;75.20
2867;DHT22;1441;48.886;8.728;2023-07-31T09:14:46;22.20;75.20
2867;DHT22;1441;48.886;8.728;2023-07-31T09:17:12;22.30;75.40
2867;DHT22;1441;48.886;8.728;2023-07-31T09:19:38;22.30;76.10
2867;DHT22;1441;48.886;8.728;2023-07-31T09:22:05;22.00;75.80
2867;DHT22;1441;48.886;8.728;2023-07-31T09:24:32;21.80;76.60
2867;DHT22;1441;48.886;8.728;2023-07-31T09:27:00;21.60;76.60
2867;DHT22;1441;48.886;8.728;2023-07-31T09:29:27;21.80;76.30
2867;DHT22;1441;48.886;8.728;2023-07-31T09:31:53;21.90;75.50
2867;DHT22;1441;48.886;8.728;2023-07-31T09:34:20;21.90;75.20
2867;DHT22;1441;48.886;8.728;2023-07-31T09:36:53;22.20;75.30
2867;DHT22;1441;48.886;8.728;2023-07-31T09:39:19;22.50;73.70
2867;DHT22;1441;48.886;8.728;2023-07-31T09:41:53;23.10;73.20
2867;DHT22;1441;48.886;8.728;2023-07-31T09:44:19;23.60;72.20
2867;DHT22;1441;48.886;8.728;2023-07-31T09:46:46;24.40;71.10
2867;DHT22;1441;48.886;8.728;2023-07-31T09:49:13;25.10;68.50
2867;DHT22;1441;48.886;8.728;2023-07-31T09:51:40;25.90;66.70
2867;DHT22;1441;48.886;8.728;2023-07-31T09:54:16;25.60;66.60
2867;DHT22;1441;48.886;8.728;2023-07-31T09:56:47;25.70;67.90
2867;DHT22;1441;48.886;8.728;2023-07-31T09:59:18;25.20;67.30
2867;DHT22;1441;48.886;8.728;2023-07-31T10:01:45;24.90;68.40
2867;DHT22;1441;48.886;8.728;2023-07-31T10:04:12;25.40;66.80
2867;DHT22;1441;48.886;8.728;2023-07-31T10:06:40;25.20;67.50
2867;DHT22;1441;48.886;8.728;2023-07-31T10:09:07;24.50;68.80
2867;DHT22;1441;48.886;8.728;2023-07-31T10:11:46;24.10;69.10
2867;DHT22;1441;48.886;8.728;2023-07-31T10:14:20;23.80;69.70
2867;DHT22;1441;48.886;8.728;2023-07-31T10:16:45;23.80;70.00
2867;DHT22;1441;48.886;8.728;2023-07-31T10:19:11;23.70;70.30
2867;DHT22;1441;48.886;8.728;2023-07-31T10:21:37;23.60;70.50
2867;DHT22;1441;48.886;8.728;2023-07-31T10:24:06;23.90;70.10
2867;DHT22;1441;48.886;8.728;2023-07-31T10:26:32;24.90;68.80
2867;DHT22;1441;48.886;8.728;2023-07-31T10:29:01;25.40;67.20
2867;DHT22;1441;48.886;8.728;2023-07-31T10:31:28;25.30;66.40
2867;DHT22;1441;48.886;8.728;2023-07-31T10:33:54;25.00;67.20
2867;DHT22;1441;48.886;8.728;2023-07-31T10:36:21;25.50;67.80
2867;DHT22;1441;48.886;8.728;2023-07-31T10:38:50;25.70;66.80
2867;DHT22;1441;48.886;8.728;2023-07-31T10:41:16;25.60;66.10
2867;DHT22;1441;48.886;8.728;2023-07-31T10:43:42;25.30;66.80
2867;DHT22;1441;48.886;8.728;2023-07-31T10:46:16;24.60;68.70
2867;DHT22;1441;48.886;8.728;2023-07-31T10:48:42;24.50;69.70
2867;DHT22;1441;48.886;8.728;2023-07-31T10:51:09;24.10;70.10
2867;DHT22;1441;48.886;8.728;2023-07-31T10:53:36;23.60;70.70
2867;DHT22;1441;48.886;8.728;2023-07-31T10:56:02;23.50;71.10
2867;DHT22;1441;48.886;8.728;2023-07-31T10:58:28;23.30;71.40
2867;DHT22;1441;48.886;8.728;2023-07-31T11:00:58;23.60;72.30
2867;DHT22;1441;48.886;8.728;2023-07-31T11:06:29;23.70;70.90
2867;DHT22;1441;48.886;8.728;2023-07-31T11:08:55;23.70;71.00
2867;DHT22;1441;48.886;8.728;2023-07-31T11:11:21;24.10;71.60
2867;DHT22;1441;48.886;8.728;2023-07-31T11:13:51;24.00;71.00
2867;DHT22;1441;48.886;8.728;2023-07-31T11:16:21;24.00;71.50
2867;DHT22;1441;48.886;8.728;2023-07-31T11:18:48;24.40;70.80
2867;DHT22;1441;48.886;8.728;2023-07-31T11:21:18;24.10;70.70
2867;DHT22;1441;48.886;8.728;2023-07-31T11:23:48;23.60;71.00
2867;DHT22;1441;48.886;8.728;2023-07-31T11:26:14;23.50;72.20
2867;DHT22;1441;48.886;8.728;2023-07-31T11:28:40;23.50;73.40
2867;DHT22;1441;48.886;8.728;2023-07-31T11:31:09;24.10;71.80
2867;DHT22;1441;48.886;8.728;2023-07-31T11:33:36;24.50;70.90
2867;DHT22;1441;48.886;8.728;2023-07-31T11:36:01;24.50;69.40
2867;DHT22;1441;48.886;8.728;2023-07-31T11:38:29;24.20;69.80
2867;DHT22;1441;48.886;8.728;2023-07-31T11:40:57;23.70;70.40
2867;DHT22;1441;48.886;8.728;2023-07-31T11:43:23;23.40;71.10
2867;DHT22;1441;48.886;8.728;2023-07-31T11:45:50;23.30;70.40
2867;DHT22;1441;48.886;8.728;2023-07-31T11:48:26;23.30;71.60
2867;DHT22;1441;48.886;8.728;2023-07-31T11:50:54;23.10;72.80
2867;DHT22;1441;48.886;8.728;2023-07-31T11:53:41;23.20;72.70
2867;DHT22;1441;48.886;8.728;2023-07-31T11:56:10;23.40;72.30
2867;DHT22;1441;48.886;8.728;2023-07-31T11:58:38;23.10;72.30
2867;DHT22;1441;48.886;8.728;2023-07-31T12:01:04;23.10;73.50
2867;DHT22;1441;48.886;8.728;2023-07-31T12:03:31;23.20;73.40
2867;DHT22;1441;48.886;8.728;2023-07-31T12:05:58;23.00;72.90
2867;DHT22;1441;48.886;8.728;2023-07-31T12:08:24;23.00;73.30
2867;DHT22;1441;48.886;8.728;2023-07-31T12:10:51;23.00;73.20
2867;DHT22;1441;48.886;8.728;2023-07-31T12:13:22;23.00;73.10
2867;DHT22;1441;48.886;8.728;2023-07-31T12:15:48;22.90;73.70
2867;DHT22;1441;48.886;8.728;2023-07-31T12:18:21;23.00;73.90
2867;DHT22;1441;48.886;8.728;2023-07-31T12:20:49;23.00;74.50
2867;DHT22;1441;48.886;8.728;2023-07-31T12:23:21;22.90;73.80
2867;DHT22;1441;48.886;8.728;2023-07-31T12:26:08;23.10;74.50
2867;DHT22;1441;48.886;8.728;2023-07-31T12:28:40;23.20;74.60
2867;DHT22;1441;48.886;8.728;2023-07-31T12:31:06;23.30;74.50
2867;DHT22;1441;48.886;8.728;2023-07-31T12:33:34;23.30;73.50
2867;DHT22;1441;48.886;8.728;2023-07-31T12:36:02;23.30;73.00
2867;DHT22;1441;48.886;8.728;2023-07-31T12:38:28;23.30;73.40
2867;DHT22;1441;48.886;8.728;2023-07-31T12:40:54;23.30;72.60
2867;DHT22;1441;48.886;8.728;2023-07-31T12:43:19;23.30;73.00
2867;DHT22;1441;48.886;8.728;2023-07-31T12:45:45;23.40;73.20
2867;DHT22;1441;48.886;8.728;2023-07-31T12:48:12;23.30;73.30
2867;DHT22;1441;48.886;8.728;2023-07-31T12:50:38;23.40;73.20
2867;DHT22;1441;48.886;8.728;2023-07-31T12:53:05;23.40;73.50
2867;DHT22;1441;48.886;8.728;2023-07-31T12:55:31;23.40;73.40
2867;DHT22;1441;48.886;8.728;2023-07-31T12:57:59;23.60;73.50
2867;DHT22;1441;48.886;8.728;2023-07-31T13:00:25;23.70;73.50
2867;DHT22;1441;48.886;8.728;2023-07-31T13:02:51;24.00;72.10
2867;DHT22;1441;48.886;8.728;2023-07-31T13:05:17;23.60;72.20
2867;DHT22;1441;48.886;8.728;2023-07-31T13:07:45;23.60;73.20
2867;DHT22;1441;48.886;8.728;2023-07-31T13:10:10;23.60;73.10
2867;DHT22;1441;48.886;8.728;2023-07-31T13:12:36;23.60;72.90
2867;DHT22;1441;48.886;8.728;2023-07-31T13:15:01;23.30;72.50
2867;DHT22;1441;48.886;8.728;2023-07-31T13:17:27;23.40;72.90
2867;DHT22;1441;48.886;8.728;2023-07-31T13:19:53;23.40;73.10
2867;DHT22;1441;48.886;8.728;2023-07-31T13:22:18;23.30;73.50
2867;DHT22;1441;48.886;8.728;2023-07-31T13:24:44;23.30;73.10
2867;DHT22;1441;48.886;8.728;2023-07-31T13:27:09;23.10;72.40
2867;DHT22;1441;48.886;8.728;2023-07-31T13:29:35;23.10;72.70
2867;DHT22;1441;48.886;8.728;2023-07-31T13:32:00;23.10;73.60
2867;DHT22;1441;48.886;8.728;2023-07-31T13:34:26;23.10;74.20
2867;DHT22;1441;48.886;8.728;2023-07-31T13:36:53;23.00;74.30
2867;DHT22;1441;48.886;8.728;2023-07-31T13:39:18;22.90;74.20
2867;DHT22;1441;48.886;8.728;2023-07-31T13:41:44;22.90;74.50
2867;DHT22;1441;48.886;8.728;2023-07-31T13:44:10;23.00;74.20
2867;DHT22;1441;48.886;8.728;2023-07-31T13:46:35;23.10;75.40
2867;DHT22;1441;48.886;8.728;2023-07-31T13:49:01;23.20;74.20
2867;DHT22;1441;48.886;8.728;2023-07-31T13:51:27;23.30;74.30
2867;DHT22;1441;48.886;8.728;2023-07-31T13:53:53;23.40;74.40
2867;DHT22;1441;48.886;8.728;2023-07-31T13:56:19;23.50;75.00
2867;DHT22;1441;48.886;8.728;2023-07-31T13:58:44;23.60;73.80
2867;DHT22;1441;48.886;8.728;2023-07-31T14:01:10;23.70;74.10
2867;DHT22;1441;48.886;8.728;2023-07-31T14:03:35;23.90;73.80
2867;DHT22;1441;48.886;8.728;2023-07-31T14:06:01;24.00;73.20
2867;DHT22;1441;48.886;8.728;2023-07-31T14:08:27;24.10;71.40
2867;DHT22;1441;48.886;8.728;2023-07-31T14:10:53;24.00;71.20
2867;DHT22;1441;48.886;8.728;2023-07-31T14:13:18;23.80;72.40
2867;DHT22;1441;48.886;8.728;2023-07-31T14:15:44;23.50;72.40
2867;DHT22;1441;48.886;8.728;2023-07-31T14:18:09;23.20;73.00
2867;DHT22;1441;48.886;8.728;2023-07-31T14:20:35;23.20;73.40
2867;DHT22;1441;48.886;8.728;2023-07-31T14:23:03;23.30;73.90
2867;DHT22;1441;48.886;8.728;2023-07-31T14:25:29;23.20;73.70
2867;DHT22;1441;48.886;8.728;2023-07-31T14:27:54;23.30;74.20
2867;DHT22;1441;48.886;8.728;2023-07-31T14:30:20;23.40;73.50
2867;DHT22;1441;48.886;8.728;2023-07-31T14:32:46;23.40;73.80
2867;DHT22;1441;48.886;8.728;2023-07-31T14:35:12;23.30;73.20
2867;DHT22;1441;48.886;8.728;2023-07-31T14:37:42;23.30;73.80
2867;DHT22;1441;48.886;8.728;2023-07-31T14:40:10;23.30;74.00
2867;DHT22;1441;48.886;8.728;2023-07-31T14:42:36;23.20;73.90
2867;DHT22;1441;48.886;8.728;2023-07-31T14:45:05;23.20;74.60
2867;DHT22;1441;48.886;8.728;2023-07-31T14:47:31;23.30;74.70
2867;DHT22;1441;48.886;8.728;2023-07-31T14:49:57;23.00;74.50
2867;DHT22;1441;48.886;8.728;2023-07-31T14:52:23;22.90;74.50
2867;DHT22;1441;48.886;8.728;2023-07-31T14:54:49;22.90;74.10
2867;DHT22;1441;48.886;8.728;2023-07-31T14:57:14;23.00;74.50
2867;DHT22;1441;48.886;8.728;2023-07-31T14:59:40;23.00;75.20
2867;DHT22;1441;48.886;8.728;2023-07-31T15:02:07;23.10;74.40
2867;DHT22;1441;48.886;8.728;2023-07-31T15:04:33;23.20;74.60
2867;DHT22;1441;48.886;8.728;2023-07-31T15:06:59;23.40;73.50
2867;DHT22;1441;48.886;8.728;2023-07-31T15:09:24;23.40;74.20
2867;DHT22;1441;48.886;8.728;2023-07-31T15:11:50;23.50;74.20
2867;DHT22;1441;48.886;8.728;2023-07-31T15:14:16;23.70;74.50
2867;DHT22;1441;48.886;8.728;2023-07-31T15:16:41;23.70;73.70
2867;DHT22;1441;48.886;8.728;2023-07-31T15:19:07;23.80;73.80
2867;DHT22;1441;48.886;8.728;2023-07-31T15:21:32;23.70;74.40
2867;DHT22;1441;48.886;8.728;2023-07-31T15:23:58;23.60;75.10
2867;DHT22;1441;48.886;8.728;2023-07-31T15:26:23;23.50;74.80
2867;DHT22;1441;48.886;8.728;2023-07-31T15:28:56;23.60;74.90
2867;DHT22;1441;48.886;8.728;2023-07-31T15:31:21;23.50;74.70
2867;DHT22;1441;48.886;8.728;2023-07-31T15:33:48;23.70;73.50
2867;DHT22;1441;48.886;8.728;2023-07-31T15:36:13;23.90;73.80
2867;DHT22;1441;48.886;8.728;2023-07-31T15:38:39;24.00;73.90
2867;DHT22;1441;48.886;8.728;2023-07-31T15:41:05;23.90;73.80
2867;DHT22;1441;48.886;8.728;2023-07-31T15:43:31;24.30;71.40
2867;DHT22;1441;48.886;8.728;2023-07-31T15:45:57;24.10;73.90
2867;DHT22;1441;48.886;8.728;2023-07-31T15:48:23;23.80;74.70
2867;DHT22;1441;48.886;8.728;2023-07-31T15:50:49;23.70;74.20
2867;DHT22;1441;48.886;8.728;2023-07-31T15:53:14;24.00;72.80
2867;DHT22;1441;48.886;8.728;2023-07-31T15:55:40;23.90;74.40
2867;DHT22;1441;48.886;8.728;2023-07-31T15:58:05;23.70;74.30
2867;DHT22;1441;48.886;8.728;2023-07-31T16:00:32;23.70;75.20
2867;DHT22;1441;48.886;8.728;2023-07-31T16:02:58;23.70;74.60
2867;DHT22;1441;48.886;8.728;2023-07-31T16:05:24;23.50;74.80